Archival Weather

Republic

Farmingdale, New York (KFRG)

Report from: Thursday, January 25, 2024 5:53 PM EST
Current time: Monday, June 17, 2024 2:25 AM EDT

Current weather – Weather history – Daily summaries
Weather forecast

Temperature11.7°C (53.1°F)
Dew point10.0°C (50.0°F)
Winds 5 kts (2.6 m/s, 5.8 mph) Northeast (50°)
Visibility10 mi. (16.1 km)
Clouds Ceiling: Broken clouds 8,000 ft. (2,438 m)
Overcast 9,000 ft. (2,743 m)
Altimeter30.14 in.Hg (1021 mB)
Relative humidity89 %
Density altitude-475 ft. (-145 m)
Sea-level pressure102.1 kPa (1021 mB, 30.14 in.Hg)
Remarks Fully automated report
Automated weather observing station with precipitation discriminator
Present weather sensor not operating
Flight conditions Visual Meteorological Conditions
Raw dataKFRG 252253Z AUTO 05005KT 10SM BKN080 OVC090 12/10 A3014 RMK AO2 SLP208 T01170100 PWINO
An error has occurred. This application may no longer respond until reloaded. Reload 🗙